Flight Track Log - Related Links

Times and Time Zones

All times are in EDT time to prevent confusion due to time zone crossing. See the UAE751 flight status page for this flight to view local times or setup timezone preferences in your user account.

Time Position Orientation Groundspeed Altitude Reporting Facility
EDT Latitude Longitude Course Direction KTS MPH feet Rate Location/Type
Wed 12:08:37 AM 25.2680 55.3440 318° Northwest 192 221 500  Level FlightAware ADS-B
Wed 12:09:07 AM 25.2830 55.3170 302° West 198 228 1,900 2,836 Climbing FlightAware ADS-B
Wed 12:09:32 AM 25.2950 55.2950 301° West 196 226 3,100 2,400 Climbing FlightAware ADS-B
Wed 12:10:17 AM 25.2920 55.2300 267° West 267 307 4,700 2,400 Climbing FlightAware ADS-B
Wed 12:10:37 AM 25.2880 55.2030 261° West 270 311 5,700 3,257 Climbing FlightAware ADS-B
Wed 12:10:52 AM 25.2840 55.1830 258° West 270 311 6,600 3,360 Climbing FlightAware ADS-B
Wed 12:11:02 AM 25.2820 55.1690 261° West 270 311 7,100 2,100 Climbing FlightAware ADS-B
Wed 12:12:12 AM 25.2650 55.0650 260° West 332 382 9,400 2,400 Climbing FlightAware ADS-B
Wed 12:13:02 AM 25.2520 54.9800 260° West 344 396 11,900 3,026 Climbing FlightAware ADS-B
Wed 12:14:07 AM 25.2580 54.8670 273° West 353 406 15,200 2,723 Climbing FlightAware ADS-B
Wed 12:15:12 AM 25.2880 54.7500 286° West 375 432 17,800 1,733 Climbing FlightAware ADS-B
Wed 12:16:22 AM 25.3170 54.6290 285° West 383 441 19,100 709 Climbing FlightAware ADS-B
Wed 12:17:02 AM 25.3330 54.5640 285° West 383 441 19,100  Level FlightAware ADS-B
Wed 12:17:42 AM 25.3490 54.5000 285° West 383 441 19,100  Level FlightAware ADS-B
Wed 12:18:22 AM 25.3640 54.4360 285° West 383 441 19,100  Level FlightAware ADS-B
Wed 12:19:12 AM 25.3840 54.3550 285° West 383 441 19,100  Level FlightAware ADS-B
Wed 12:19:42 AM 25.3950 54.3070 284° West 383 441 19,100 1,611 Level FlightAware ADS-B
Wed 12:22:00 AM 25.4986 54.0488 294° West  Level Estimated
Wed 12:23:00 AM 25.5435 53.9364 294° West  Level Estimated
Wed 12:24:00 AM 25.5883 53.8240 294° West  Level Estimated
Wed 12:25:00 AM 25.6330 53.7114 294° West  Level Estimated
Wed 12:26:00 AM 25.6776 53.5988 294° West  Level Estimated
Wed 12:27:00 AM 25.7222 53.4861 294° West  Level Estimated
Wed 12:28:00 AM 25.7666 53.3732 294° West  Level Estimated
Wed 12:28:27 AM 25.7250 53.1320 294° West 430 495 34,000  Level FlightAware ADS-B
Wed 12:29:12 AM 25.7670 53.0470 299° West 416 479 34,000  Level FlightAware ADS-B
Wed 12:29:52 AM 25.7820 52.9630 281° West 417 480 34,000  Level FlightAware ADS-B
Wed 12:30:32 AM 25.7930 52.8770 278° West 416 479 34,000  Level FlightAware ADS-B
Wed 12:31:12 AM 25.8050 52.7930 279° West 417 480 34,000  Level FlightAware ADS-B
Wed 12:32:02 AM 25.8200 52.6940 280° West 416 479 34,000  Level FlightAware ADS-B
Wed 12:32:42 AM 25.8330 52.6030 279° West 416 479 34,000  Level FlightAware ADS-B
Wed 12:33:22 AM 25.8450 52.5200 279° West 416 479 34,000  Level FlightAware ADS-B
Wed 12:34:07 AM 25.8690 52.4290 286° West 416 479 34,000  Level FlightAware ADS-B
Wed 12:34:47 AM 25.9050 52.3540 298° West 419 482 34,000  Level FlightAware ADS-B
Wed 12:35:32 AM 25.9470 52.2680 299° West 420 483 34,000  Level FlightAware ADS-B
Wed 12:36:12 AM 25.9850 52.1890 298° West 421 484 34,000  Level FlightAware ADS-B
Wed 12:36:52 AM 26.0230 52.1110 298° West 420 483 34,000  Level FlightAware ADS-B
Wed 12:37:37 AM 26.0630 52.0270 298° West 421 484 34,000  Level FlightAware ADS-B
Wed 12:38:12 AM 26.0940 51.9630 298° West 420 483 34,000  Level FlightAware ADS-B
Wed 12:38:57 AM 26.1360 51.8740 298° West 419 482 34,000  Level FlightAware ADS-B
Wed 12:39:42 AM 26.1760 51.7900 298° West 417 480 34,000  Level FlightAware ADS-B
Wed 12:40:22 AM 26.2120 51.7120 297° West 414 476 34,000  Level FlightAware ADS-B
Wed 12:41:07 AM 26.2510 51.6240 296° West 414 476 34,000  Level FlightAware ADS-B
Wed 12:41:47 AM 26.2850 51.5480 297° West 414 476 34,000  Level FlightAware ADS-B
Wed 12:42:32 AM 26.3250 51.4610 297° West 413 475 34,000  Level FlightAware ADS-B
Wed 12:43:12 AM 26.3610 51.3800 296° West 414 476 34,000  Level FlightAware ADS-B
Wed 12:43:52 AM 26.3920 51.3030 294° West 415 478 34,000  Level FlightAware ADS-B
Wed 12:44:32 AM 26.4230 51.2250 294° West 416 479 34,000  Level FlightAware ADS-B
Wed 12:45:17 AM 26.4580 51.1410 295° West 415 478 34,000  Level FlightAware ADS-B
Wed 12:46:12 AM 26.5020 51.0310 294° West 416 479 34,000  Level FlightAware ADS-B
Wed 12:46:52 AM 26.5350 50.9490 294° West 420 483 34,000  Level FlightAware ADS-B
Wed 12:47:37 AM 26.5670 50.8590 292° West 419 482 34,000  Level FlightAware ADS-B
Wed 12:48:47 AM 26.6150 50.7170 291° West 421 484 34,000  Level FlightAware ADS-B
Wed 12:49:22 AM 26.6400 50.6450 291° West 422 486 34,000  Level FlightAware ADS-B
Wed 12:50:12 AM 26.6700 50.5530 290° West 422 486 34,000  Level FlightAware ADS-B
Wed 12:50:52 AM 26.6930 50.4830 290° West 422 486 34,000  Level FlightAware ADS-B
Wed 12:51:32 AM 26.7160 50.4130 290° West 422 486 34,000  Level FlightAware ADS-B
Wed 12:52:32 AM 26.7610 50.2600 288° West 419 482 34,000  Level FlightAware ADS-B
Wed 12:53:12 AM 26.7760 50.1880 283° West 419 482 34,000  Level FlightAware ADS-B
Wed 12:53:27 AM 26.7540 50.1370 244° Southwest 422 486 34,000  Level FlightAware ADS-B
Wed 12:54:02 AM 26.7510 50.0600 268° West 422 486 34,000  Level FlightAware ADS-B
Wed 12:54:47 AM 26.7490 49.9750 269° West 422 486 34,000  Level FlightAware ADS-B
Wed 12:55:27 AM 26.7460 49.8730 268° West 423 487 34,000  Level FlightAware ADS-B
Wed 12:56:12 AM 26.7440 49.7840 269° West 423 487 34,000  Level FlightAware ADS-B
Wed 12:56:52 AM 26.7430 49.7090 269° West 423 487 34,000  Level FlightAware ADS-B
Wed 12:57:47 AM 26.7360 49.5730 267° West 427 491 34,000  Level FlightAware ADS-B
Wed 12:58:27 AM 26.7330 49.4840 268° West 426 490 34,000  Level FlightAware ADS-B
Wed 12:59:12 AM 26.7300 49.3870 268° West 427 491 34,000  Level FlightAware ADS-B
Wed 01:00:07 AM 26.7260 49.2630 268° West 426 490 34,000  Level FlightAware ADS-B
Wed 01:00:52 AM 26.7220 49.1590 268° West 425 489 34,000  Level FlightAware ADS-B
Wed 01:01:32 AM 26.7190 49.0800 268° West 425 489 34,000  Level FlightAware ADS-B
Wed 01:02:17 AM 26.7150 48.9760 268° West 426 490 34,000  Level FlightAware ADS-B
Wed 01:03:02 AM 26.7110 48.8730 268° West 427 491 34,000  Level FlightAware ADS-B
Wed 01:03:37 AM 26.7080 48.7940 268° West 426 490 34,000  Level FlightAware ADS-B
Wed 01:04:22 AM 26.7050 48.7000 268° West 426 490 34,000  Level FlightAware ADS-B
Wed 01:05:07 AM 26.7010 48.5980 268° West 427 491 34,000  Level FlightAware ADS-B
Wed 01:05:47 AM 26.6970 48.5090 267° West 427 491 34,000  Level FlightAware ADS-B
Wed 01:08:00 AM 26.7894 48.2539 292° West  Level Estimated
Wed 01:09:00 AM 26.8310 48.1387 292° West  Level Estimated
Wed 01:10:00 AM 26.8724 48.0234 292° West  Level Estimated
Wed 01:11:00 AM 26.9138 47.9080 292° West  Level Estimated
Wed 01:12:00 AM 26.9551 47.7925 292° West  Level Estimated
Wed 01:13:00 AM 26.9963 47.6770 292° West  Level Estimated
Wed 01:14:00 AM 27.0374 47.5613 292° West  Level Estimated
Wed 01:15:00 AM 27.0784 47.4456 292° West  Level Estimated
Wed 01:16:00 AM 27.1192 47.3298 292° West  Level Estimated
Wed 01:16:32 AM 26.8080 47.1120 292° West 425 489 34,000  Level FlightAware ADS-B
Wed 01:17:12 AM 26.8210 47.0250 280° West 426 490 34,000  Level FlightAware ADS-B
Wed 01:17:57 AM 26.8360 46.9260 280° West 424 488 34,000  Level FlightAware ADS-B
Wed 01:18:37 AM 26.8490 46.8400 280° West 423 487 34,000  Level FlightAware ADS-B
Wed 01:19:17 AM 26.8620 46.7540 280° West 420 483 34,000  Level FlightAware ADS-B
Wed 01:20:02 AM 26.8770 46.6570 280° West 422 486 34,000  Level FlightAware ADS-B
Wed 01:20:37 AM 26.8880 46.5830 279° West 422 486 34,000  Level FlightAware ADS-B
Wed 01:21:17 AM 26.9010 46.4960 280° West 422 486 34,000  Level FlightAware ADS-B
Wed 01:22:07 AM 26.9170 46.3880 279° West 417 480 34,000  Level FlightAware ADS-B
Wed 01:22:47 AM 26.9300 46.3040 280° West 417 480 34,000  Level FlightAware ADS-B
Wed 01:23:32 AM 26.9440 46.2070 279° West 419 482 34,000  Level FlightAware ADS-B
Wed 01:24:12 AM 26.9560 46.1210 279° West 420 483 34,000  Level FlightAware ADS-B
Wed 01:24:57 AM 26.9700 46.0260 279° West 421 484 34,000  Level FlightAware ADS-B
Wed 01:25:37 AM 26.9830 45.9390 280° West 422 486 34,000  Level FlightAware ADS-B
Wed 01:26:17 AM 26.9960 45.8520 280° West 421 484 34,000  Level FlightAware ADS-B
Wed 01:27:02 AM 27.0090 45.7590 279° West 423 487 34,000  Level FlightAware ADS-B
Wed 01:27:42 AM 27.0220 45.6700 279° West 422 486 34,000  Level FlightAware ADS-B
Wed 01:28:27 AM 27.0360 45.5710 279° West 419 482 34,000  Level FlightAware ADS-B
Wed 01:29:07 AM 27.0480 45.4890 279° West 416 479 34,000  Level FlightAware ADS-B
Wed 01:29:47 AM 27.0600 45.4020 279° West 415 478 34,000  Level FlightAware ADS-B
Wed 01:30:32 AM 27.0700 45.3050 277° West 413 475 34,000  Level FlightAware ADS-B
Wed 01:31:12 AM 27.0790 45.2220 277° West 413 475 34,000  Level FlightAware ADS-B
Wed 01:31:57 AM 27.0890 45.1260 277° West 413 475 34,000  Level FlightAware ADS-B
Wed 01:32:37 AM 27.0980 45.0490 277° West 413 475 34,000  Level FlightAware ADS-B
Wed 01:33:17 AM 27.1120 44.9610 280° West 411 473 34,000  Level FlightAware ADS-B
Wed 01:33:57 AM 27.1220 44.8890 279° West 411 473 34,000  Level FlightAware ADS-B
Wed 01:34:47 AM 27.1350 44.7990 279° West 411 473 34,000  Level FlightAware ADS-B
Wed 01:35:27 AM 27.1450 44.7280 279° West 411 473 34,000  Level FlightAware ADS-B
Wed 01:36:07 AM 27.1550 44.6560 279° West 411 473 34,000  Level FlightAware ADS-B
Wed 01:36:47 AM 27.1650 44.5840 279° West 411 473 34,000  Level FlightAware ADS-B
Wed 01:37:27 AM 27.1750 44.5120 279° West 411 473 34,000  Level FlightAware ADS-B
Wed 01:38:17 AM 27.1880 44.4230 279° West 411 473 34,000  Level FlightAware ADS-B
Wed 01:38:57 AM 27.1980 44.3510 279° West 411 473 34,000  Level FlightAware ADS-B
Wed 01:39:37 AM 27.2080 44.2790 279° West 411 473 34,000  Level FlightAware ADS-B
Wed 01:40:17 AM 27.2180 44.2070 279° West 411 473 34,000  Level FlightAware ADS-B
Wed 01:40:57 AM 27.2280 44.1350 279° West 411 473 34,000  Level FlightAware ADS-B
Wed 01:41:47 AM 27.2410 44.0460 279° West 411 473 34,000  Level FlightAware ADS-B
Wed 01:42:27 AM 27.2510 43.9740 279° West 411 473 34,000  Level FlightAware ADS-B
Wed 01:45:00 AM 27.3521 43.6768 291° West  Level Estimated
Wed 01:46:00 AM 27.3916 43.5600 291° West  Level Estimated
Wed 01:47:00 AM 27.4309 43.4432 291° West  Level Estimated
Wed 01:48:00 AM 27.4702 43.3264 291° West  Level Estimated
Wed 01:49:00 AM 27.5094 43.2094 291° West  Level Estimated
Wed 01:50:00 AM 27.5485 43.0923 291° West  Level Estimated
Wed 01:51:00 AM 27.5874 42.9752 291° West  Level Estimated
Wed 01:52:00 AM 27.6263 42.8580 291° West  Level Estimated
Wed 01:53:00 AM 27.6651 42.7407 290° West  Level Estimated
Wed 01:54:00 AM 27.7038 42.6233 290° West  Level Estimated
Wed 01:55:00 AM 27.7424 42.5058 290° West  Level Estimated
Wed 01:56:00 AM 27.7809 42.3883 290° West  Level Estimated
Wed 01:57:00 AM 27.8193 42.2706 290° West  Level Estimated
Wed 01:58:00 AM 27.8575 42.1529 290° West  Level Estimated
Wed 01:59:00 AM 27.8957 42.0351 290° West  Level Estimated
Wed 02:00:00 AM 27.9338 41.9173 290° West  Level Estimated
Wed 02:01:00 AM 27.9718 41.7993 290° West  Level Estimated
Wed 02:02:00 AM 28.0097 41.6812 290° West  Level Estimated
Wed 02:03:00 AM 28.0475 41.5631 290° West  Level Estimated
Wed 02:04:00 AM 28.0852 41.4449 290° West  Level Estimated
Wed 02:05:00 AM 28.1228 41.3266 290° West  Level Estimated
Wed 02:06:00 AM 28.1602 41.2082 290° West  Level Estimated
Wed 02:07:00 AM 28.1976 41.0898 290° West  Level Estimated
Wed 02:08:00 AM 28.2349 40.9712 290° West  Level Estimated
Wed 02:09:00 AM 28.2721 40.8526 290° West  Level Estimated
Wed 02:10:00 AM 28.3092 40.7339 290° West  Level Estimated
Wed 02:11:00 AM 28.3461 40.6151 289° West  Level Estimated
Wed 02:12:00 AM 28.3830 40.4962 289° West  Level Estimated
Wed 02:13:00 AM 28.4198 40.3772 289° West  Level Estimated
Wed 02:14:00 AM 28.4564 40.2582 289° West  Level Estimated
Wed 02:15:00 AM 28.4930 40.1391 289° West  Level Estimated
Wed 02:16:00 AM 28.5294 40.0199 289° West  Level Estimated
Wed 02:17:00 AM 28.5658 39.9006 289° West  Level Estimated
Wed 02:18:00 AM 28.6020 39.7812 289° West  Level Estimated
Wed 02:19:00 AM 28.6381 39.6618 289° West  Level Estimated
Wed 02:20:00 AM 28.6742 39.5422 289° West  Level Estimated
Wed 02:21:00 AM 28.7101 39.4226 289° West  Level Estimated
Wed 02:22:00 AM 28.7459 39.3029 289° West  Level Estimated
Wed 02:23:00 AM 28.7817 39.1831 289° West  Level Estimated
Wed 02:24:00 AM 28.8173 39.0633 289° West  Level Estimated
Wed 02:25:00 AM 28.8528 38.9433 289° West  Level Estimated
Wed 02:26:00 AM 28.8882 38.8233 289° West  Level Estimated
Wed 02:27:00 AM 28.9235 38.7032 289° West  Level Estimated
Wed 02:28:00 AM 28.9587 38.5830 289° West  Level Estimated
Wed 02:29:00 AM 28.9937 38.4627 288° West  Level Estimated
Wed 02:30:00 AM 29.0287 38.3424 288° West  Level Estimated
Wed 02:31:00 AM 29.0636 38.2219 288° West  Level Estimated
Wed 02:32:00 AM 29.0983 38.1014 288° West  Level Estimated
Wed 02:33:00 AM 29.1330 37.9808 288° West  Level Estimated
Wed 02:34:00 AM 29.1675 37.8601 288° West  Level Estimated
Wed 02:34:02 AM 29.0960 37.3240 288° West 417 480 34,000  Level FlightAware ADS-B
Wed 02:34:42 AM 29.0940 37.2370 269° West 417 480 34,000  Level FlightAware ADS-B
Wed 02:35:17 AM 29.0930 37.1650 269° West 417 480 34,000  Level FlightAware ADS-B
Wed 02:36:07 AM 29.0920 37.0710 269° West 417 480 34,000  Level FlightAware ADS-B
Wed 02:36:47 AM 29.0910 36.9960 269° West 417 480 34,000  Level FlightAware ADS-B
Wed 02:37:27 AM 29.0900 36.9210 269° West 417 480 34,000  Level FlightAware ADS-B
Wed 02:38:07 AM 29.0880 36.8460 268° West 417 480 34,000  Level FlightAware ADS-B
Wed 02:38:47 AM 29.0870 36.7710 269° West 417 480 34,000  Level FlightAware ADS-B
Wed 02:39:37 AM 29.0860 36.6770 269° West 417 480 34,000  Level FlightAware ADS-B
Wed 02:40:17 AM 29.0850 36.6020 269° West 417 480 34,000  Level FlightAware ADS-B
Wed 02:40:57 AM 29.0840 36.5270 269° West 417 480 34,000  Level FlightAware ADS-B
Wed 02:41:37 AM 29.0820 36.4520 268° West 417 480 34,000  Level FlightAware ADS-B
Wed 02:42:17 AM 29.0810 36.3770 269° West 417 480 34,000  Level FlightAware ADS-B
Wed 02:43:17 AM 29.0710 36.1080 268° West 416 479 34,000  Level FlightAware ADS-B
Wed 02:43:57 AM 29.0690 36.0330 268° West 416 479 34,000  Level FlightAware ADS-B
Wed 02:44:37 AM 29.0670 35.9590 268° West 416 479 34,000  Level FlightAware ADS-B
Wed 02:45:27 AM 29.0640 35.8650 268° West 416 479 34,000  Level FlightAware ADS-B
Wed 02:46:07 AM 29.0610 35.7900 267° West 416 479 34,000  Level FlightAware ADS-B
Wed 02:46:47 AM 29.0590 35.7160 268° West 416 479 34,000  Level FlightAware ADS-B
Wed 02:47:27 AM 29.0570 35.6410 268° West 416 479 34,000  Level FlightAware ADS-B
Wed 02:48:07 AM 29.0550 35.5660 268° West 416 479 34,000  Level FlightAware ADS-B
Wed 02:48:57 AM 29.0520 35.4720 268° West 416 479 34,000  Level FlightAware ADS-B
Wed 02:49:37 AM 29.0490 35.3980 267° West 416 479 34,000  Level FlightAware ADS-B
Wed 02:50:17 AM 29.0470 35.3230 268° West 416 479 34,000  Level FlightAware ADS-B
Wed 02:50:57 AM 29.0450 35.2480 268° West 416 479 34,000  Level FlightAware ADS-B
Wed 02:51:37 AM 29.0430 35.1730 268° West 416 479 34,000  Level FlightAware ADS-B
Wed 02:52:17 AM 29.0400 35.0980 267° West 416 479 34,000  Level FlightAware ADS-B
Wed 02:55:00 AM 29.1322 34.7697 288° West  Level Estimated
Wed 02:56:00 AM 29.1659 34.6488 288° West  Level Estimated
Wed 02:57:00 AM 29.1996 34.5277 288° West  Level Estimated
Wed 02:58:00 AM 29.2331 34.4066 288° West  Level Estimated
Wed 02:59:00 AM 29.2665 34.2854 288° West  Level Estimated
Wed 03:00:00 AM 29.2998 34.1641 288° West  Level Estimated
Wed 03:01:00 AM 29.3330 34.0427 287° West  Level Estimated
Wed 03:02:00 AM 29.3661 33.9213 287° West  Level Estimated
Wed 03:03:00 AM 29.3990 33.7997 287° West  Level Estimated
Wed 03:04:00 AM 29.4319 33.6781 287° West  Level Estimated
Wed 03:05:00 AM 29.4646 33.5564 287° West  Level Estimated
Wed 03:06:00 AM 29.4973 33.4347 287° West  Level Estimated
Wed 03:07:00 AM 29.5298 33.3128 287° West  Level Estimated
Wed 03:08:00 AM 29.5622 33.1909 287° West  Level Estimated
Wed 03:09:00 AM 29.5945 33.0689 287° West  Level Estimated
Wed 03:10:00 AM 29.6267 32.9468 287° West  Level Estimated
Wed 03:11:00 AM 29.6588 32.8247 287° West  Level Estimated
Wed 03:12:00 AM 29.6908 32.7024 287° West  Level Estimated
Wed 03:13:00 AM 29.7227 32.5801 287° West  Level Estimated
Wed 03:14:00 AM 29.7544 32.4577 287° West  Level Estimated
Wed 03:15:00 AM 29.7860 32.3353 287° West  Level Estimated
Wed 03:16:00 AM 29.8176 32.2127 287° West  Level Estimated
Wed 03:17:00 AM 29.8490 32.0901 286° West  Level Estimated
Wed 03:18:00 AM 29.8803 31.9674 286° West  Level Estimated
Wed 03:19:00 AM 29.9114 31.8446 286° West  Level Estimated
Wed 03:20:00 AM 29.9425 31.7218 286° West  Level Estimated
Wed 03:21:00 AM 29.9734 31.5989 286° West  Level Estimated
Wed 03:22:00 AM 30.0043 31.4758 286° West  Level Estimated
Wed 03:23:00 AM 30.0350 31.3528 286° West  Level Estimated
Wed 03:24:00 AM 30.0656 31.2296 286° West  Level Estimated
Wed 03:25:00 AM 30.0961 31.1064 286° West  Level Estimated
Wed 03:26:00 AM 30.1265 30.9831 286° West  Level Estimated
Wed 03:27:00 AM 30.1567 30.8597 286° West  Level Estimated
Wed 03:28:00 AM 30.1869 30.7362 286° West  Level Estimated
Wed 03:29:00 AM 30.2169 30.6127 286° West  Level Estimated
Wed 03:30:00 AM 30.2468 30.4891 286° West  Level Estimated
Wed 03:31:00 AM 30.2766 30.3654 286° West  Level Estimated
Wed 03:32:00 AM 30.3063 30.2416 286° West  Level Estimated
Wed 03:33:00 AM 30.3359 30.1178 285° West  Level Estimated
Wed 03:34:00 AM 30.3654 29.9939 285° West  Level Estimated
Wed 03:35:00 AM 30.3947 29.8699 285° West  Level Estimated
Wed 03:36:00 AM 30.4239 29.7458 285° West  Level Estimated
Wed 03:37:00 AM 30.4530 29.6217 285° West  Level Estimated
Wed 03:38:00 AM 30.4820 29.4975 285° West  Level Estimated
Wed 03:39:00 AM 30.5108 29.3732 285° West  Level Estimated
Wed 03:40:00 AM 30.5396 29.2488 285° West  Level Estimated
Wed 03:41:00 AM 30.5682 29.1244 285° West  Level Estimated
Wed 03:42:00 AM 30.5967 28.9999 285° West  Level Estimated
Wed 03:43:00 AM 30.6251 28.8753 285° West  Level Estimated
Wed 03:44:00 AM 30.6534 28.7507 285° West  Level Estimated
Wed 03:45:00 AM 30.6815 28.6260 285° West  Level Estimated
Wed 03:46:00 AM 30.7096 28.5012 285° West  Level Estimated
Wed 03:47:00 AM 30.7375 28.3763 285° West  Level Estimated
Wed 03:48:00 AM 30.7653 28.2514 285° West  Level Estimated
Wed 03:49:00 AM 30.7930 28.1264 284° West  Level Estimated
Wed 03:50:00 AM 30.8205 28.0013 284° West  Level Estimated
Wed 03:51:00 AM 30.8480 27.8761 284° West  Level Estimated
Wed 03:52:00 AM 30.8753 27.7509 284° West  Level Estimated
Wed 03:53:00 AM 30.9025 27.6256 284° West  Level Estimated
Wed 03:54:00 AM 30.9295 27.5002 284° West  Level Estimated
Wed 03:55:00 AM 30.9565 27.3748 284° West  Level Estimated
Wed 03:56:00 AM 30.9833 27.2493 284° West  Level Estimated
Wed 03:57:00 AM 31.0100 27.1237 284° West  Level Estimated
Wed 03:58:00 AM 31.0366 26.9981 284° West  Level Estimated
Wed 03:59:00 AM 31.0631 26.8723 284° West  Level Estimated
Wed 04:00:00 AM 31.0894 26.7465 284° West  Level Estimated
Wed 04:01:00 AM 31.1156 26.6207 284° West  Level Estimated
Wed 04:02:00 AM 31.1417 26.4947 284° West  Level Estimated
Wed 04:03:00 AM 31.1677 26.3687 284° West  Level Estimated
Wed 04:04:00 AM 31.1936 26.2427 284° West  Level Estimated
Wed 04:05:00 AM 31.2193 26.1165 283° West  Level Estimated
Wed 04:06:00 AM 31.2449 25.9903 283° West  Level Estimated
Wed 04:07:00 AM 31.2704 25.8641 283° West  Level Estimated
Wed 04:08:00 AM 31.2957 25.7377 283° West  Level Estimated
Wed 04:09:00 AM 31.3210 25.6113 283° West  Level Estimated
Wed 04:10:00 AM 31.3461 25.4848 283° West  Level Estimated
Wed 04:11:00 AM 31.3711 25.3583 283° West  Level Estimated
Wed 04:12:00 AM 31.3960 25.2317 283° West  Level Estimated
Wed 04:13:00 AM 31.4207 25.1050 283° West  Level Estimated
Wed 04:14:00 AM 31.4453 24.9783 283° West  Level Estimated
Wed 04:15:00 AM 31.4698 24.8515 283° West  Level Estimated
Wed 04:16:00 AM 31.4942 24.7246 283° West  Level Estimated
Wed 04:17:00 AM 31.5184 24.5976 283° West  Level Estimated
Wed 04:18:00 AM 31.5425 24.4706 283° West  Level Estimated
Wed 04:19:00 AM 31.5665 24.3436 283° West  Level Estimated
Wed 04:20:00 AM 31.5904 24.2164 282° West  Level Estimated
Wed 04:21:00 AM 31.6141 24.0892 282° West  Level Estimated
Wed 04:22:00 AM 31.6377 23.9620 282° West  Level Estimated
Wed 04:23:00 AM 31.6612 23.8346 282° West  Level Estimated
Wed 04:23:52 AM 34.1430 24.6720 282° West 395 455 34,000  Level FlightAware ADS-B
Wed 04:24:00 AM 31.6846 23.7072 282° West  Level Estimated
Wed 04:25:00 AM 31.7078 23.5798 282° West  Level Estimated
Wed 04:25:02 AM 34.1860 24.5280 290° West 396 456 34,000  Level FlightAware ADS-B
Wed 04:26:32 AM 34.2420 24.3360 289° West 399 459 34,000  Level FlightAware ADS-B
Wed 04:27:12 AM 34.2620 24.2640 289° West 399 459 34,000  Level FlightAware ADS-B
Wed 04:27:52 AM 34.2830 24.1930 290° West 399 459 34,000  Level FlightAware ADS-B
Wed 04:28:32 AM 34.3030 24.1210 289° West 399 459 34,000  Level FlightAware ADS-B
Wed 04:29:22 AM 34.3290 24.0310 289° West 399 459 34,000  Level FlightAware ADS-B
Wed 04:30:02 AM 34.3490 23.9590 289° West 399 459 34,000  Level FlightAware ADS-B
Wed 04:30:32 AM 34.3640 23.9050 289° West 399 459 34,000  Level FlightAware ADS-B
Wed 04:33:00 AM 34.3960 23.5758 277° West  Level Estimated
Wed 04:33:17 AM 34.4900 23.4810 277° West 405 466 34,000  Level FlightAware ADS-B
Wed 04:33:57 AM 34.5100 23.4070 288° West 405 466 34,000  Level FlightAware ADS-B
Wed 04:34:37 AM 34.5310 23.3340 289° West 405 466 34,000  Level FlightAware ADS-B
Wed 04:35:17 AM 34.5520 23.2610 289° West 405 466 34,000  Level FlightAware ADS-B
Wed 04:35:57 AM 34.5720 23.1880 288° West 405 466 34,000  Level FlightAware ADS-B
Wed 04:36:47 AM 34.5980 23.0970 289° West 405 466 34,000  Level FlightAware ADS-B
Wed 04:37:27 AM 34.6190 23.0230 289° West 405 466 34,000  Level FlightAware ADS-B
Wed 04:38:07 AM 34.6400 22.9500 289° West 405 466 34,000  Level FlightAware ADS-B
Wed 04:38:47 AM 34.6610 22.8770 289° West 405 466 34,000  Level FlightAware ADS-B
Wed 04:39:37 AM 34.6870 22.7850 289° West 405 466 34,000  Level FlightAware ADS-B
Wed 04:40:17 AM 34.7070 22.7120 288° West 405 466 34,000  Level FlightAware ADS-B
Wed 04:40:57 AM 34.7280 22.6390 289° West 405 466 34,000  Level FlightAware ADS-B
Wed 04:41:37 AM 34.7490 22.5660 289° West 405 466 34,000  Level FlightAware ADS-B
Wed 04:42:17 AM 34.7690 22.4920 288° West 405 466 34,000 131 Level FlightAware ADS-B
Wed 04:44:00 AM 34.7868 22.2612 275° West  Level Estimated
Wed 04:45:00 AM 34.7969 22.1267 275° West  Level Estimated
Wed 04:46:00 AM 34.8069 21.9922 275° West  Level Estimated
Wed 04:47:00 AM 34.8167 21.8577 275° West  Level Estimated
Wed 04:48:00 AM 34.8264 21.7231 275° West  Level Estimated
Wed 04:49:00 AM 34.8360 21.5884 275° West  Level Estimated
Wed 04:50:00 AM 34.8454 21.4538 275° West  Level Estimated
Wed 04:51:00 AM 34.8546 21.3191 275° West  Level Estimated
Wed 04:52:00 AM 34.8637 21.1844 275° West  Level Estimated
Wed 04:53:00 AM 34.8727 21.0497 275° West  Level Estimated
Wed 04:54:00 AM 34.8815 20.9149 275° West  Level Estimated
Wed 04:55:00 AM 34.8902 20.7801 275° West  Level Estimated
Wed 04:56:00 AM 34.8987 20.6453 274° West  Level Estimated
Wed 04:56:52 AM 35.0340 20.4100 274° West 398 458 36,000  Level FlightAware ADS-B
Wed 04:57:27 AM 35.0420 20.3420 278° West 398 458 36,000  Level FlightAware ADS-B
Wed 04:58:17 AM 35.0550 20.2470 280° West 398 458 36,000  Level FlightAware ADS-B
Wed 04:58:57 AM 35.0640 20.1720 278° West 398 458 36,000  Level FlightAware ADS-B
Wed 04:59:37 AM 35.0740 20.0960 279° West 398 458 36,000  Level FlightAware ADS-B
Wed 05:00:17 AM 35.0840 20.0210 279° West 398 458 36,000  Level FlightAware ADS-B
Wed 05:01:02 AM 35.1170 19.8500 283° West 407 468 36,000  Level FlightAware ADS-B
Wed 05:02:12 AM 35.1390 19.6980 280° West 407 468 36,000  Level FlightAware ADS-B
Wed 05:02:57 AM 35.1560 19.5850 280° West 410 472 36,000  Level FlightAware ADS-B
Wed 05:03:27 AM 35.1650 19.5190 279° West 411 473 36,000  Level FlightAware ADS-B
Wed 05:04:12 AM 35.1770 19.4270 279° West 411 473 36,000  Level FlightAware ADS-B
Wed 05:05:02 AM 35.1970 19.2980 281° West 414 476 36,000  Level FlightAware ADS-B
Wed 05:05:37 AM 35.2080 19.2190 280° West 415 478 36,000  Level FlightAware ADS-B
Wed 05:06:37 AM 35.2280 19.0780 280° West 418 481 36,000  Level FlightAware ADS-B
Wed 05:07:22 AM 35.2420 18.9770 280° West 419 482 36,000  Level FlightAware ADS-B
Wed 05:07:52 AM 35.2520 18.9020 279° West 420 483 36,000  Level FlightAware ADS-B
Wed 05:08:32 AM 35.2650 18.8100 280° West 421 484 36,000  Level FlightAware ADS-B
Wed 05:09:12 AM 35.2780 18.7140 279° West 422 486 36,000  Level FlightAware ADS-B
Wed 05:09:47 AM 35.2880 18.6430 280° West 423 487 36,000  Level FlightAware ADS-B
Wed 05:10:12 AM 35.2770 18.7260 99° East 36,000  Level FlightAware ADS-B
Wed 05:10:37 AM 35.3030 18.5290 279° West 423 487 36,000  Level FlightAware ADS-B
Wed 05:11:22 AM 35.3190 18.4160 280° West 423 487 36,000  Level FlightAware ADS-B
Wed 05:11:57 AM 35.3310 18.3270 279° West 422 486 36,000  Level FlightAware ADS-B
Wed 05:12:47 AM 35.3460 18.2090 279° West 420 483 36,000  Level FlightAware ADS-B
Wed 05:13:27 AM 35.3580 18.1160 279° West 421 484 36,000  Level FlightAware ADS-B
Wed 05:14:07 AM 35.3710 18.0240 280° West 421 484 36,000  Level FlightAware ADS-B
Wed 05:14:52 AM 35.3850 17.9120 279° West 425 489 36,000  Level FlightAware ADS-B
Wed 05:15:32 AM 35.3980 17.8160 279° West 427 491 36,000  Level FlightAware ADS-B
Wed 05:16:12 AM 35.4100 17.7220 279° West 426 490 36,000  Level FlightAware ADS-B
Wed 05:16:57 AM 35.4230 17.6160 279° West 427 491 36,000  Level FlightAware ADS-B
Wed 05:17:37 AM 35.4350 17.5200 279° West 432 497 36,000  Level FlightAware ADS-B
Wed 05:18:22 AM 35.4500 17.4080 279° West 434 499 36,000  Level FlightAware ADS-B
Wed 05:19:02 AM 35.4620 17.3110 279° West 435 501 36,000  Level FlightAware ADS-B
Wed 05:19:47 AM 35.4750 17.2040 279° West 436 502 36,000  Level FlightAware ADS-B
Wed 05:20:27 AM 35.4870 17.1060 279° West 438 504 36,000  Level FlightAware ADS-B
Wed 05:21:07 AM 35.4990 17.0090 279° West 439 505 36,000  Level FlightAware ADS-B
Wed 05:21:52 AM 35.5130 16.8960 279° West 440 506 36,000  Level FlightAware ADS-B
Wed 05:22:32 AM 35.5250 16.7960 278° West 441 507 36,000  Level FlightAware ADS-B
Wed 05:23:17 AM 35.5380 16.6890 279° West 441 507 36,000  Level FlightAware ADS-B
Wed 05:23:57 AM 35.5490 16.5890 278° West 441 507 36,000  Level FlightAware ADS-B
Wed 05:24:37 AM 35.5610 16.4900 279° West 440 506 36,000  Level FlightAware ADS-B
Wed 05:25:22 AM 35.5740 16.3760 278° West 440 506 36,000  Level FlightAware ADS-B
Wed 05:26:02 AM 35.5860 16.2780 279° West 443 510 36,000  Level FlightAware ADS-B
Wed 05:26:42 AM 35.5970 16.1760 278° West 443 510 36,000  Level FlightAware ADS-B
Wed 05:27:27 AM 35.6100 16.0690 279° West 444 511 36,000  Level FlightAware ADS-B
Wed 05:28:07 AM 35.6210 15.9690 278° West 445 512 36,000  Level FlightAware ADS-B
Wed 05:28:52 AM 35.6340 15.8530 278° West 446 513 36,000  Level FlightAware ADS-B
Wed 05:29:32 AM 35.6460 15.7520 278° West 448 516 36,000  Level FlightAware ADS-B
Wed 05:30:12 AM 35.6570 15.6510 278° West 449 517 36,000  Level FlightAware ADS-B
Wed 05:30:57 AM 35.6690 15.5390 278° West 447 514 36,000  Level FlightAware ADS-B
Wed 05:31:37 AM 35.6800 15.4410 278° West 449 517 36,000  Level FlightAware ADS-B
Wed 05:32:22 AM 35.6920 15.3240 277° West 444 511 36,000  Level FlightAware ADS-B
Wed 05:33:02 AM 35.7030 15.2230 278° West 443 510 36,000  Level FlightAware ADS-B
Wed 05:33:42 AM 35.7140 15.1240 278° West 445 512 36,000  Level FlightAware ADS-B
Wed 05:34:27 AM 35.7250 15.0140 277° West 446 513 36,000  Level FlightAware ADS-B
Wed 05:35:07 AM 35.7360 14.9120 278° West 446 513 36,000  Level FlightAware ADS-B
Wed 05:35:47 AM 35.7460 14.8130 277° West 447 514 36,000  Level FlightAware ADS-B
Wed 05:36:32 AM 35.7580 14.6950 277° West 449 517 36,000  Level FlightAware ADS-B
Wed 05:37:17 AM 35.7690 14.5840 277° West 452 520 36,000  Level FlightAware ADS-B
Wed 05:37:57 AM 35.7800 14.4830 278° West 453 521 36,000  Level FlightAware ADS-B
Wed 05:38:37 AM 35.7900 14.3810 277° West 454 522 36,000  Level FlightAware ADS-B
Wed 05:39:17 AM 35.8000 14.2770 277° West 455 524 36,000  Level FlightAware ADS-B
Wed 05:40:02 AM 35.8120 14.1590 277° West 458 527 36,000  Level FlightAware ADS-B
Wed 05:40:42 AM 35.8220 14.0540 277° West 459 528 36,000  Level FlightAware ADS-B
Wed 05:41:22 AM 35.8310 13.9530 276° West 458 527 36,000  Level FlightAware ADS-B
Wed 05:42:07 AM 35.8420 13.8390 277° West 457 526 36,000  Level FlightAware ADS-B
Wed 05:42:47 AM 35.8520 13.7360 277° West 457 526 36,000  Level FlightAware ADS-B
Wed 05:43:32 AM 35.8630 13.6160 276° West 456 525 36,000  Level FlightAware ADS-B
Wed 05:44:12 AM 35.8730 13.5140 277° West 457 526 36,000  Level FlightAware ADS-B
Wed 05:44:57 AM 35.8830 13.4010 276° West 457 526 36,000  Level FlightAware ADS-B
Wed 05:45:37 AM 35.8930 13.2960 277° West 459 528 36,000  Level FlightAware ADS-B
Wed 05:46:17 AM 35.9020 13.1910 276° West 461 531 36,000 212 Level FlightAware ADS-B
Wed 05:47:02 AM 35.9120 13.0730 276° West 457 526 36,300 424 Climbing FlightAware ADS-B
Wed 05:47:42 AM 35.9220 12.9690 277° West 455 524 36,600 450 Climbing FlightAware ADS-B
Wed 05:48:22 AM 35.9300 12.8740 276° West 457 526 36,900 494 Climbing FlightAware ADS-B
Wed 05:49:07 AM 35.9500 12.7570 282° West 459 528 37,300 494 Climbing FlightAware ADS-B
Wed 05:49:47 AM 35.9700 12.6540 284° West 459 528 37,600 494 Climbing FlightAware ADS-B
Wed 05:50:32 AM 35.9930 12.5360 284° West 463 533 38,000 282 Climbing FlightAware ADS-B
Wed 05:51:12 AM 36.0130 12.4340 284° West 462 532 38,000  Level FlightAware ADS-B
Wed 05:51:57 AM 36.0360 12.3170 284° West 460 529 38,000  Level FlightAware ADS-B
Wed 05:52:37 AM 36.0560 12.2140 284° West 460 529 38,000  Level FlightAware ADS-B
Wed 05:53:17 AM 36.0760 12.1120 284° West 456 525 38,000  Level FlightAware ADS-B
Wed 05:54:02 AM 36.0980 12.0000 284° West 457 526 38,000  Level FlightAware ADS-B
Wed 05:54:42 AM 36.1170 11.9000 283° West 458 527 38,000  Level FlightAware ADS-B
Wed 05:55:22 AM 36.1370 11.7970 284° West 459 528 38,000  Level FlightAware ADS-B
Wed 05:56:07 AM 36.1600 11.6800 284° West 454 522 38,000  Level FlightAware ADS-B
Wed 05:56:47 AM 36.1790 11.5820 284° West 452 520 38,000  Level FlightAware ADS-B
Wed 05:57:32 AM 36.2000 11.4700 283° West 454 522 38,000  Level FlightAware ADS-B
Wed 05:58:12 AM 36.2200 11.3680 284° West 459 528 38,000  Level FlightAware ADS-B
Wed 05:58:52 AM 36.2400 11.2640 283° West 465 535 38,000  Level FlightAware ADS-B
Wed 05:59:37 AM 36.2630 11.1460 284° West 466 536 38,000  Level FlightAware ADS-B
Wed 06:00:17 AM 36.2820 11.0430 283° West 469 540 38,000  Level FlightAware ADS-B
Wed 06:01:02 AM 36.3050 10.9260 284° West 473 544 38,000  Level FlightAware ADS-B
Wed 06:01:42 AM 36.3250 10.8200 283° West 475 547 38,000  Level FlightAware ADS-B
Wed 06:02:22 AM 36.3450 10.7140 283° West 476 548 38,000  Level FlightAware ADS-B
Wed 06:03:07 AM 36.3730 10.5930 286° West 480 552 38,000  Level FlightAware ADS-B
Wed 06:03:47 AM 36.4030 10.4890 290° West 476 548 38,000  Level FlightAware ADS-B
Wed 06:04:27 AM 36.4200 10.3860 282° West 466 536 38,000  Level FlightAware ADS-B
Wed 06:05:27 AM 36.4240 10.2270 272° West 459 528 38,000  Level FlightAware ADS-B
Wed 06:06:07 AM 36.4240 10.1220 270° West 457 526 38,000  Level FlightAware ADS-B
Wed 06:07:02 AM 36.4240 9.9790 270° West 458 527 38,000  Level FlightAware ADS-B
Wed 06:07:47 AM 36.4230 9.8600 269° West 457 526 38,000  Level FlightAware ADS-B
Wed 06:08:32 AM 36.4220 9.7480 269° West 455 524 38,000  Level FlightAware ADS-B
Wed 06:09:12 AM 36.4210 9.6400 269° West 459 528 38,000  Level FlightAware ADS-B
Wed 06:10:07 AM 36.4200 9.5050 270° West 464 534 38,000  Level FlightAware ADS-B
Wed 06:12:00 AM 36.3933 9.2476 263° West  Level Estimated
Wed 06:12:57 AM 36.4170 9.0550 263° West 463 533 38,000  Level FlightAware ADS-B
Wed 06:13:00 AM 36.3788 9.1110 263° West  Level Estimated
Wed 06:13:27 AM 36.4170 8.9870 270° West 463 533 38,000  Level FlightAware ADS-B
Wed 06:15:32 AM 36.4110 8.6420 269° West 464 534 38,000  Level FlightAware ADS-B
Wed 06:16:12 AM 36.4110 8.5520 270° West 464 534 38,000  Level FlightAware ADS-B
Wed 06:16:52 AM 36.4110 8.4610 270° West 464 534 38,000  Level FlightAware ADS-B
Wed 06:17:32 AM 36.4110 8.3700 270° West 464 534 38,000  Level FlightAware ADS-B
Wed 06:18:12 AM 36.4110 8.2800 270° West 464 534 38,000  Level FlightAware ADS-B
Wed 06:19:02 AM 36.4110 8.1660 270° West 464 534 38,000  Level FlightAware ADS-B
Wed 06:19:42 AM 36.4110 8.0760 270° West 464 534 38,000  Level FlightAware ADS-B
Wed 06:20:22 AM 36.4110 7.9850 270° West 464 534 38,000  Level FlightAware ADS-B
Wed 06:21:02 AM 36.4110 7.8940 270° West 464 534 38,000  Level FlightAware ADS-B
Wed 06:21:42 AM 36.4110 7.8030 270° West 464 534 38,000  Level FlightAware ADS-B
Wed 06:22:32 AM 36.4110 7.6900 270° West 464 534 38,000  Level FlightAware ADS-B
Wed 06:23:12 AM 36.4110 7.5990 270° West 464 534 38,000  Level FlightAware ADS-B
Wed 06:23:52 AM 36.4110 7.5090 270° West 464 534 38,000  Level FlightAware ADS-B
Wed 06:24:32 AM 36.4110 7.4180 270° West 464 534 38,000  Level FlightAware ADS-B
Wed 06:27:00 AM 36.3654 7.0829 261° West  Level Estimated
Wed 06:28:00 AM 36.3466 6.9472 260° West  Level Estimated
Wed 06:29:00 AM 36.3277 6.8115 260° West  Level Estimated
Wed 06:30:00 AM 36.3086 6.6759 260° West  Level Estimated
Wed 06:31:00 AM 36.2894 6.5404 260° West  Level Estimated
Wed 06:32:00 AM 36.2701 6.4049 260° West  Level Estimated
Wed 06:33:00 AM 36.2505 6.2695 260° West  Level Estimated
Wed 06:34:00 AM 36.2309 6.1342 260° West  Level Estimated
Wed 06:35:00 AM 36.2110 5.9989 260° West  Level Estimated
Wed 06:36:00 AM 36.1910 5.8637 260° West  Level Estimated
Wed 06:37:00 AM 36.1709 5.7286 260° West  Level Estimated
Wed 06:38:00 AM 36.1506 5.5935 260° West  Level Estimated
Wed 06:39:00 AM 36.1302 5.4585 259° West  Level Estimated
Wed 06:40:00 AM 36.1096 5.3236 259° West  Level Estimated
Wed 06:41:00 AM 36.0888 5.1888 259° West  Level Estimated
Wed 06:42:00 AM 36.0680 5.0540 259° West  Level Estimated
Wed 06:43:00 AM 36.0469 4.9193 259° West  Level Estimated
Wed 06:44:00 AM 36.0257 4.7847 259° West  Level Estimated
Wed 06:45:00 AM 36.0044 4.6501 259° West  Level Estimated
Wed 06:46:00 AM 35.9829 4.5156 259° West  Level Estimated
Wed 06:47:00 AM 35.9613 4.3812 259° West  Level Estimated
Wed 06:48:00 AM 35.9395 4.2469 259° West  Level Estimated
Wed 06:49:00 AM 35.9175 4.1126 259° West  Level Estimated
Wed 06:50:00 AM 35.8954 3.9784 259° West  Level Estimated
Wed 06:51:00 AM 35.8732 3.8443 258° West  Level Estimated
Wed 06:52:00 AM 35.8508 3.7103 258° West  Level Estimated
Wed 06:53:00 AM 35.8283 3.5763 258° West  Level Estimated
Wed 06:54:00 AM 35.8056 3.4425 258° West  Level Estimated
Wed 06:55:00 AM 35.7827 3.3086 258° West  Level Estimated
Wed 06:56:00 AM 35.7598 3.1749 258° West  Level Estimated
Wed 06:57:00 AM 35.7366 3.0413 258° West  Level Estimated
Wed 06:58:00 AM 35.7134 2.9077 258° West  Level Estimated
Wed 06:59:00 AM 35.6899 2.7742 258° West  Level Estimated
Wed 07:00:00 AM 35.6664 2.6408 258° West  Level Estimated
Wed 07:01:00 AM 35.6426 2.5074 258° West  Level Estimated
Wed 07:02:00 AM 35.6188 2.3742 258° West  Level Estimated
Wed 07:03:00 AM 35.5948 2.2410 258° West  Level Estimated
Wed 07:04:00 AM 35.5706 2.1079 257° West  Level Estimated
Wed 07:04:22 AM 36.1050 0.7330 257° West 518 596 38,000  Level FlightAware ADS-B
Wed 07:05:00 AM 35.5463 1.9749 257° West  Level Estimated
Wed 07:05:07 AM 36.0660 0.6190 247° West 518 596 38,000  Level FlightAware ADS-B
Wed 07:05:47 AM 36.0350 0.5260 248° West 518 596 38,000  Level FlightAware ADS-B
Wed 07:06:27 AM 36.0030 0.4340 247° West 518 596 38,000  Level FlightAware ADS-B
Wed 07:07:07 AM 35.9710 0.3410 247° West 518 596 38,000  Level FlightAware ADS-B
Wed 07:07:47 AM 35.9390 0.2480 247° West 518 596 38,000  Level FlightAware ADS-B
Wed 07:08:37 AM 35.8990 0.1330 247° West 518 596 38,000  Level FlightAware ADS-B
Wed 07:09:32 AM 35.6890 -0.4460 246° West 517 595 38,000  Level FlightAware ADS-B
Wed 07:10:27 AM 35.6340 -0.5970 246° West 520 598 38,000  Level FlightAware ADS-B
Wed 07:11:47 AM 35.5310 -0.7870 236° Southwest 525 604 38,000  Level FlightAware ADS-B
Wed 07:12:27 AM 35.4830 -0.8690 234° Southwest 525 604 38,000  Level FlightAware ADS-B
Wed 07:13:42 AM 35.3640 -1.0470 231° Southwest 526 605 38,000  Level FlightAware ADS-B
Wed 07:14:22 AM 35.3140 -1.1280 233° Southwest 526 605 38,000  Level FlightAware ADS-B
Wed 07:15:02 AM 35.2640 -1.2090 233° Southwest 526 605 38,000  Level FlightAware ADS-B
Wed 07:15:52 AM 35.2020 -1.3100 233° Southwest 526 605 38,000  Level FlightAware ADS-B
Wed 07:16:32 AM 35.1520 -1.3910 233° Southwest 526 605 38,000  Level FlightAware ADS-B
Wed 07:17:12 AM 35.1030 -1.4720 234° Southwest 526 605 38,000  Level FlightAware ADS-B
Wed 07:17:52 AM 35.0530 -1.5520 233° Southwest 526 605 38,000  Level FlightAware ADS-B
Wed 07:18:47 AM 34.8990 -1.7640 229° Southwest 523 602 38,000  Level FlightAware ADS-B
Wed 07:20:22 AM 34.7620 -1.9820 233° Southwest 520 598 38,000  Level FlightAware ADS-B
Wed 07:21:12 AM 34.7280 -2.1230 254° West 510 587 38,000  Level FlightAware ADS-B
Wed 07:21:52 AM 34.7030 -2.2160 252° West 510 587 38,000  Level FlightAware ADS-B
Wed 07:22:32 AM 34.6780 -2.3090 252° West 510 587 38,000  Level FlightAware ADS-B
Wed 07:23:42 AM 34.6220 -2.5280 253° West 506 582 38,000  Level FlightAware ADS-B
Wed 07:25:12 AM 34.5560 -2.7700 252° West 506 582 38,000  Level FlightAware ADS-B
Wed 07:26:22 AM 34.5040 -2.9630 252° West 508 585 38,000  Level FlightAware ADS-B
Wed 07:27:02 AM 34.4760 -3.0680 252° West 508 585 38,000  Level FlightAware ADS-B
Wed 07:28:42 AM 34.4450 -3.1830 252° West 508 585 38,000  Level FlightAware ADS-B
Wed 07:29:22 AM 34.4200 -3.2750 252° West 508 585 38,000  Level FlightAware ADS-B
Wed 07:30:02 AM 34.3960 -3.3670 252° West 508 585 38,000  Level FlightAware ADS-B
Wed 07:30:42 AM 34.3710 -3.4590 252° West 508 585 38,000  Level FlightAware ADS-B
Wed 07:31:22 AM 34.3460 -3.5510 252° West 508 585 38,000  Level FlightAware ADS-B
Wed 07:32:12 AM 34.3150 -3.6660 252° West 508 585 38,000  Level FlightAware ADS-B
Wed 07:32:52 AM 34.2910 -3.7580 252° West 508 585 38,000  Level FlightAware ADS-B
Wed 07:33:32 AM 34.2660 -3.8500 252° West 508 585 38,000  Level FlightAware ADS-B
Wed 07:34:12 AM 34.2410 -3.9420 252° West 508 585 38,000  Level FlightAware ADS-B
Wed 07:34:52 AM 34.2160 -4.0340 252° West 508 585 38,000  Level FlightAware ADS-B
Wed 07:35:42 AM 34.1860 -4.1490 253° West 508 585 38,000  Level FlightAware ADS-B
Wed 07:36:22 AM 34.1610 -4.2410 252° West 508 585 38,000  Level FlightAware ADS-B
Wed 07:37:02 AM 34.1360 -4.3330 252° West 508 585 38,000  Level FlightAware ADS-B
Wed 07:39:00 AM 34.0795 -4.5875 255° West  Level Estimated
Wed 07:40:00 AM 34.0506 -4.7167 255° West  Level Estimated
Wed 07:41:00 AM 34.0215 -4.8459 255° West  Level Estimated
Wed 07:42:00 AM 33.9924 -4.9750 255° West  Level Estimated
Wed 07:43:00 AM 33.9630 -5.1040 255° West  Level Estimated
Wed 07:44:00 AM 33.9336 -5.2329 255° West  Level Estimated
Wed 07:45:00 AM 33.9040 -5.3617 255° West  Level Estimated
Wed 07:46:00 AM 33.8743 -5.4904 254° West  Level Estimated
Wed 07:47:00 AM 33.8444 -5.6190 254° West  Level Estimated
Wed 07:48:00 AM 33.8144 -5.7476 254° West  Level Estimated
Wed 07:49:00 AM 33.7843 -5.8760 254° West  Level Estimated
Wed 07:50:00 AM 33.7540 -6.0044 254° West  Level Estimated
Wed 07:51:00 AM 33.7236 -6.1326 254° West  Level Estimated
Wed 07:52:00 AM 33.6931 -6.2608 254° West  Level Estimated
Wed 07:53:00 AM 33.6625 -6.3889 254° West  Level Estimated
Wed 07:54:00 AM 33.6317 -6.5169 254° West  Level Estimated
Wed 07:55:00 AM 33.6007 -6.6448 254° West  Level Estimated
Wed 07:56:00 AM 33.5697 -6.7726 254° West  Level Estimated
Wed 07:57:00 AM 33.5385 -6.9003 254° West  Level Estimated
Wed 07:58:00 AM 33.5072 -7.0280 254° West  Level Estimated
Wed 07:59:00 AM 33.4758 -7.1555 254° West  Level Estimated
Wed 08:00:00 AM 33.4442 -7.2829 253° West  Level Estimated
Wed 08:01:00 AM 33.4125 -7.4103 253° West  Level Estimated
Wed 08:02:00 AM 33.3806 -7.5375 253° West  Level Estimated
Wed 08:03:00 AM 33.3680 -7.5880 253° West  Level Estimated
Wed 08:04:00 AM 33.3680 -7.5880 257° West  Level Estimated
Wed 08:05:00 AM 33.3680 -7.5880 257° West  Level Estimated
Wed 08:06:00 AM 33.3680 -7.5880 257° West  Level Estimated
Wed 08:07:00 AM 33.3680 -7.5880 257° West  Level Estimated
Wed 08:08:00 AM 33.3680 -7.5880 257° West  Level Estimated
Wed 08:09:00 AM 33.3680 -7.5880 257° West  Level Estimated
Wed 08:10:00 AM 33.3680 -7.5880 257° West  Level Estimated
Wed 08:11:00 AM 33.3680 -7.5880 257° West  Level Estimated
Wed 08:12:00 AM 33.3680 -7.5880 257° West  Level Estimated
Wed 08:13:00 AM 33.3680 -7.5880 257° West  Level Estimated
Wed 08:14:00 AM 33.3680 -7.5880 257° West  Level Estimated
Wed 08:15:00 AM 33.3680 -7.5880 257° West  Level Estimated
Wed 08:16:00 AM 33.3680 -7.5880 257° West  Level Estimated
Wed 08:17:00 AM 33.3680 -7.5880 257° West  Level Estimated
Wed 08:18:00 AM 33.3680 -7.5880 257° West  Level Estimated
Wed 08:19:00 AM 33.3680 -7.5880 257° West  Level Estimated
Wed 08:20:00 AM 33.3680 -7.5880 257° West  Level Estimated

Login

Don't have an account? Register now (free) for customized features, flight alerts, and more!